createdAt,value
2023-05-17T00:02:18.036Z,5.07
2023-05-17T00:04:47.841Z,7.40
2023-05-17T00:07:14.927Z,6.95
2023-05-17T00:09:41.750Z,7.75
2023-05-17T00:12:08.653Z,7.13
2023-05-17T00:14:35.885Z,8.02
2023-05-17T00:17:02.589Z,7.40
2023-05-17T00:19:29.315Z,7.13
2023-05-17T00:21:56.360Z,6.25
2023-05-17T00:24:23.169Z,6.43
2023-05-17T00:26:49.899Z,6.70
2023-05-17T00:29:16.690Z,5.75
2023-05-17T00:31:43.408Z,5.53
2023-05-17T00:34:10.222Z,6.82
2023-05-17T00:36:37.419Z,6.60
2023-05-17T00:39:04.226Z,5.90
2023-05-17T00:41:31.019Z,6.10
2023-05-17T00:43:57.852Z,6.28
2023-05-17T00:46:24.616Z,6.05
2023-05-17T00:48:51.484Z,6.15
2023-05-17T00:51:19.882Z,6.47
2023-05-17T00:53:47.288Z,6.57
2023-05-17T00:56:14.172Z,6.03
2023-05-17T00:58:42.486Z,6.18
2023-05-17T01:01:09.310Z,6.28
2023-05-17T01:03:36.287Z,6.28
2023-05-17T01:06:03.494Z,6.30
2023-05-17T01:08:30.460Z,6.38
2023-05-17T01:11:26.594Z,6.15
2023-05-17T01:14:04.673Z,6.28
2023-05-17T01:16:59.182Z,5.85
2023-05-17T01:19:44.929Z,6.18
2023-05-17T01:22:28.523Z,6.47
2023-05-17T01:25:12.393Z,6.88
2023-05-17T01:27:43.440Z,7.50
2023-05-17T01:30:13.743Z,6.75
2023-05-17T01:32:43.130Z,6.20
2023-05-17T01:35:12.398Z,6.32
2023-05-17T01:37:39.774Z,6.45
2023-05-17T01:40:09.394Z,6.90
2023-05-17T01:42:40.387Z,6.70
2023-05-17T01:45:07.669Z,6.45
2023-05-17T01:47:50.794Z,6.50
2023-05-17T01:50:24.422Z,6.93
2023-05-17T01:52:57.785Z,6.40
2023-05-17T01:55:50.497Z,6.07
2023-05-17T01:58:21.917Z,6.18
2023-05-17T02:00:52.460Z,6.07
2023-05-17T02:03:20.182Z,6.05
2023-05-17T02:05:47.268Z,6.53
2023-05-17T02:08:14.262Z,6.55
2023-05-17T02:10:41.144Z,6.63
2023-05-17T02:13:07.901Z,6.38
2023-05-17T02:15:34.610Z,6.47
2023-05-17T02:18:01.625Z,7.18
2023-05-17T02:20:28.761Z,6.63
2023-05-17T02:22:55.603Z,6.18
2023-05-17T02:25:22.388Z,6.70
2023-05-17T02:27:49.089Z,7.18
2023-05-17T02:30:17.987Z,6.40
2023-05-17T02:32:45.316Z,8.13
2023-05-17T02:35:12.267Z,6.88
2023-05-17T02:37:39.119Z,7.13
2023-05-17T02:40:10.524Z,7.20
2023-05-17T02:42:38.239Z,7.32
2023-05-17T02:45:05.292Z,6.47
2023-05-17T02:47:32.161Z,6.20
2023-05-17T02:49:59.006Z,6.70
2023-05-17T02:52:25.812Z,7.32
2023-05-17T02:54:53.121Z,6.70
2023-05-17T02:57:19.882Z,6.78
2023-05-17T02:59:46.697Z,7.03
2023-05-17T03:02:13.471Z,7.57
2023-05-17T03:04:40.650Z,7.30
2023-05-17T03:07:07.744Z,7.50
2023-05-17T03:09:35.045Z,7.72
2023-05-17T03:12:01.870Z,7.40
2023-05-17T03:14:28.605Z,7.03
2023-05-17T03:16:55.460Z,7.55
2023-05-17T03:19:22.698Z,8.18
2023-05-17T03:21:49.433Z,7.60
2023-05-17T03:24:16.178Z,7.05
2023-05-17T03:26:43.060Z,6.90
2023-05-17T03:29:09.811Z,7.40
2023-05-17T03:31:36.626Z,7.22
2023-05-17T03:34:03.462Z,8.27
2023-05-17T03:36:31.364Z,7.60
2023-05-17T03:38:58.105Z,7.32
2023-05-17T03:41:25.140Z,7.45
2023-05-17T03:43:51.883Z,7.43
2023-05-17T03:46:18.620Z,7.75
2023-05-17T03:48:45.569Z,7.53
2023-05-17T03:51:12.596Z,7.82
2023-05-17T03:53:43.113Z,8.85
2023-05-17T03:56:10.870Z,7.32
2023-05-17T03:58:37.679Z,8.23
2023-05-17T04:01:05.063Z,8.60
2023-05-17T04:03:32.126Z,7.90
2023-05-17T04:06:06.878Z,8.43
2023-05-17T04:08:35.271Z,8.23
2023-05-17T04:11:10.548Z,7.68
2023-05-17T04:16:05.000Z,8.60
2023-05-17T04:18:37.121Z,8.77
2023-05-17T04:21:04.573Z,8.63
2023-05-17T04:23:32.742Z,9.00
2023-05-17T04:25:59.829Z,8.57
2023-05-17T04:28:27.170Z,9.70
2023-05-17T04:30:54.230Z,9.48
2023-05-17T04:33:21.126Z,8.73
2023-05-17T04:35:48.101Z,8.93
2023-05-17T04:38:14.870Z,8.65
2023-05-17T04:40:42.355Z,8.15
2023-05-17T04:43:09.507Z,8.98
2023-05-17T04:45:37.585Z,9.05
2023-05-17T04:48:04.830Z,8.77
2023-05-17T04:50:31.782Z,8.77
2023-05-17T04:52:58.613Z,8.90
2023-05-17T04:55:25.951Z,9.82
2023-05-17T04:57:52.830Z,9.77
2023-05-17T05:00:21.038Z,9.48
2023-05-17T05:02:48.013Z,9.70
2023-05-17T05:05:14.846Z,8.93
2023-05-17T05:07:41.729Z,9.02
2023-05-17T05:10:08.825Z,9.55
2023-05-17T05:12:35.746Z,9.32
2023-05-17T05:15:02.594Z,9.65
2023-05-17T05:17:31.067Z,9.07
2023-05-17T05:19:58.224Z,9.73
2023-05-17T05:22:25.858Z,9.20
2023-05-17T05:24:52.741Z,9.25
2023-05-17T05:27:19.828Z,9.52
2023-05-17T05:29:46.772Z,8.13
2023-05-17T05:32:15.310Z,9.13
2023-05-17T05:34:42.216Z,8.23
2023-05-17T05:37:09.036Z,8.55
2023-05-17T05:39:35.853Z,8.32
2023-05-17T05:42:04.328Z,8.25
2023-05-17T05:44:31.739Z,8.30
2023-05-17T05:46:58.619Z,8.45
2023-05-17T05:49:25.802Z,8.25
2023-05-17T05:51:52.551Z,8.52
2023-05-17T05:54:19.281Z,8.98
2023-05-17T05:56:46.146Z,8.93
2023-05-17T05:59:12.938Z,9.48
2023-05-17T06:01:39.733Z,8.60
2023-05-17T06:04:06.563Z,7.95
2023-05-17T06:06:33.443Z,9.13
2023-05-17T06:09:00.564Z,7.97
2023-05-17T06:11:27.601Z,8.65
2023-05-17T06:13:54.498Z,9.00
2023-05-17T06:16:21.268Z,8.18
2023-05-17T06:18:50.342Z,8.52
2023-05-17T06:21:18.579Z,8.10
2023-05-17T06:23:45.530Z,7.88
2023-05-17T06:26:12.570Z,8.07
2023-05-17T06:28:39.261Z,7.30
2023-05-17T06:31:06.010Z,7.68
2023-05-17T06:33:32.964Z,7.72
2023-05-17T06:38:27.631Z,7.65
2023-05-17T06:40:55.677Z,7.82
2023-05-17T06:43:22.725Z,6.78
2023-05-17T06:45:49.547Z,6.90
2023-05-17T06:48:16.977Z,6.85
2023-05-17T06:50:44.108Z,6.40
2023-05-17T06:53:10.850Z,5.68
2023-05-17T06:55:38.128Z,4.75
2023-05-17T06:58:07.446Z,4.63
2023-05-17T07:00:34.321Z,4.20
2023-05-17T07:03:01.551Z,4.15
2023-05-17T07:05:30.832Z,4.25
2023-05-17T07:08:01.200Z,4.28
2023-05-17T07:10:28.088Z,4.07
2023-05-17T07:12:54.814Z,4.55
2023-05-17T07:15:21.868Z,5.07
2023-05-17T07:17:48.824Z,4.32
2023-05-17T07:20:16.602Z,4.20
2023-05-17T07:22:43.476Z,3.92
2023-05-17T07:25:10.785Z,4.00
2023-05-17T07:27:37.654Z,4.13
2023-05-17T07:30:05.292Z,4.55
2023-05-17T07:32:34.128Z,5.00
2023-05-17T07:35:02.215Z,5.00
2023-05-17T07:37:29.031Z,4.93
2023-05-17T07:39:55.883Z,5.72
2023-05-17T07:42:22.904Z,4.60
2023-05-17T07:44:49.967Z,4.85
2023-05-17T07:47:16.953Z,4.70
2023-05-17T07:49:46.622Z,4.65
2023-05-17T07:52:13.403Z,4.55
2023-05-17T07:54:40.302Z,3.80
2023-05-17T07:57:07.023Z,4.00
2023-05-17T07:59:33.799Z,4.30
2023-05-17T08:02:00.558Z,3.10
2023-05-17T08:04:27.319Z,3.38
2023-05-17T08:06:55.332Z,3.08
2023-05-17T08:09:22.217Z,3.25
2023-05-17T08:11:49.052Z,3.53
2023-05-17T08:14:16.609Z,3.03
2023-05-17T08:16:46.265Z,3.53
2023-05-17T08:19:14.945Z,3.08
2023-05-17T08:21:42.653Z,3.08
2023-05-17T08:24:09.578Z,2.80
2023-05-17T08:26:36.457Z,3.35
2023-05-17T08:29:04.764Z,2.80
2023-05-17T08:31:32.612Z,2.60
2023-05-17T08:33:59.432Z,2.83
2023-05-17T08:36:26.887Z,2.70
2023-05-17T08:38:53.869Z,2.25
2023-05-17T08:41:21.335Z,2.05
2023-05-17T08:43:50.001Z,2.13
2023-05-17T08:46:21.726Z,2.20
2023-05-17T08:48:51.853Z,2.00
2023-05-17T08:51:20.534Z,2.00
2023-05-17T08:53:48.264Z,1.75
2023-05-17T08:56:17.501Z,1.75
2023-05-17T08:58:56.170Z,1.80
2023-05-17T09:01:26.440Z,1.83
2023-05-17T09:03:54.292Z,1.70
2023-05-17T09:06:22.706Z,2.00
2023-05-17T09:08:55.062Z,1.08
2023-05-17T09:11:32.758Z,1.02
2023-05-17T09:14:07.184Z,1.10
2023-05-17T09:16:38.004Z,0.77
2023-05-17T09:19:07.280Z,1.00
2023-05-17T09:21:35.764Z,0.60
2023-05-17T09:24:07.041Z,0.95
2023-05-17T09:26:43.116Z,0.85
2023-05-17T09:29:11.813Z,0.93
2023-05-17T09:31:39.361Z,0.80
2023-05-17T09:34:09.403Z,0.80
2023-05-17T09:36:43.562Z,1.00
2023-05-17T09:39:13.697Z,1.05
2023-05-17T09:41:51.182Z,0.73
2023-05-17T09:44:17.944Z,0.73
2023-05-17T09:46:47.243Z,1.08
2023-05-17T09:49:15.098Z,0.85
2023-05-17T09:51:43.812Z,0.85
2023-05-17T09:54:11.536Z,0.80
2023-05-17T09:56:39.093Z,0.73
2023-05-17T09:59:15.938Z,0.70
2023-05-17T10:01:45.207Z,0.73
2023-05-17T10:04:13.489Z,0.68
2023-05-17T10:09:14.615Z,0.68
2023-05-17T10:11:46.069Z,0.57
2023-05-17T10:14:27.525Z,1.10
2023-05-17T10:16:55.026Z,0.80
2023-05-17T10:19:22.680Z,0.70
2023-05-17T10:21:51.570Z,0.70
2023-05-17T10:24:20.573Z,0.70
2023-05-17T10:26:52.023Z,0.70
2023-05-17T10:29:22.176Z,0.70
2023-05-17T10:31:53.120Z,0.65
2023-05-17T10:34:21.017Z,0.85
2023-05-17T10:36:50.105Z,0.63
2023-05-17T10:39:17.908Z,0.70
2023-05-17T10:41:47.973Z,0.73
2023-05-17T10:44:16.920Z,0.80
2023-05-17T10:46:57.294Z,1.00
2023-05-17T10:49:26.982Z,1.00
2023-05-17T10:51:54.617Z,1.15
2023-05-17T10:54:21.619Z,0.95
2023-05-17T10:56:50.824Z,0.90
2023-05-17T10:59:29.421Z,0.80
2023-05-17T11:02:09.920Z,0.75
2023-05-17T11:04:42.253Z,0.90
2023-05-17T11:07:28.007Z,0.80
2023-05-17T11:10:03.744Z,1.00
2023-05-17T11:12:35.523Z,1.00
2023-05-17T11:15:13.417Z,1.08
2023-05-17T11:17:43.384Z,1.00
2023-05-17T11:20:17.110Z,1.20
2023-05-17T11:22:59.858Z,1.15
2023-05-17T11:25:32.346Z,1.00
2023-05-17T11:28:00.144Z,1.10
2023-05-17T11:30:31.736Z,1.08
2023-05-17T11:33:03.027Z,1.23
2023-05-17T11:35:34.016Z,1.67
2023-05-17T11:38:20.161Z,1.33
2023-05-17T11:40:53.490Z,1.42
2023-05-17T11:43:22.928Z,1.33
2023-05-17T11:45:58.407Z,1.40
2023-05-17T11:50:54.711Z,1.63
2023-05-17T11:53:22.069Z,1.90
2023-05-17T11:55:51.693Z,1.70
2023-05-17T11:58:20.508Z,1.45
2023-05-17T12:00:53.985Z,1.73
2023-05-17T12:03:25.465Z,1.48
2023-05-17T12:06:09.554Z,1.40
2023-05-17T12:08:38.913Z,1.70
2023-05-17T12:11:07.139Z,1.38
2023-05-17T12:13:35.617Z,1.88
2023-05-17T12:16:05.864Z,1.55
2023-05-17T12:18:37.113Z,2.00
2023-05-17T12:21:04.363Z,2.00
2023-05-17T12:23:52.066Z,1.90
2023-05-17T12:26:22.689Z,1.70
2023-05-17T12:29:00.154Z,1.73
2023-05-17T12:31:29.847Z,1.85
2023-05-17T12:33:59.246Z,2.08
2023-05-17T12:36:29.270Z,1.70
2023-05-17T12:38:57.053Z,1.80
2023-05-17T12:41:26.323Z,1.77
2023-05-17T12:44:02.896Z,2.08
2023-05-17T12:46:40.229Z,1.70
2023-05-17T12:49:09.559Z,1.50
2023-05-17T12:51:46.767Z,1.98
2023-05-17T12:54:26.117Z,1.75
2023-05-17T12:56:52.908Z,2.08
2023-05-17T12:59:25.468Z,1.48
2023-05-17T13:01:57.507Z,1.85
2023-05-17T13:04:33.137Z,1.75
2023-05-17T13:07:02.741Z,1.70
2023-05-17T13:09:31.348Z,1.83
2023-05-17T13:12:05.022Z,1.83
2023-05-17T13:14:37.618Z,1.83
2023-05-17T13:17:06.230Z,1.90
2023-05-17T13:19:33.527Z,2.38
2023-05-17T13:22:00.435Z,1.95
2023-05-17T13:24:28.656Z,2.00
2023-05-17T13:26:55.390Z,2.10
2023-05-17T13:29:35.264Z,2.13
2023-05-17T13:32:07.463Z,1.83
2023-05-17T13:34:35.555Z,2.15
2023-05-17T13:37:02.355Z,1.90
2023-05-17T13:39:29.362Z,1.90
2023-05-17T13:41:56.146Z,2.00
2023-05-17T13:44:22.839Z,1.92
2023-05-17T13:46:49.644Z,2.08
2023-05-17T13:49:17.252Z,2.55
2023-05-17T13:51:44.909Z,2.55
2023-05-17T13:54:11.712Z,2.50
2023-05-17T13:56:38.452Z,2.30
2023-05-17T13:59:05.233Z,1.98
2023-05-17T14:01:32.051Z,2.67
2023-05-17T14:04:00.559Z,1.92
2023-05-17T14:06:27.615Z,2.10
2023-05-17T14:08:55.916Z,1.80
2023-05-17T14:11:22.805Z,1.92
2023-05-17T14:13:49.514Z,1.80
2023-05-17T14:16:16.305Z,1.70
2023-05-17T14:18:43.176Z,2.00
2023-05-17T14:21:10.142Z,1.85
2023-05-17T14:23:37.488Z,1.60
2023-05-17T14:26:07.278Z,1.50
2023-05-17T14:28:37.980Z,1.80
2023-05-17T14:31:09.350Z,1.50
2023-05-17T14:33:36.246Z,1.73
2023-05-17T14:36:03.969Z,2.15
2023-05-17T14:38:31.103Z,1.40
2023-05-17T14:41:00.567Z,1.45
2023-05-17T14:43:27.577Z,1.45
2023-05-17T14:45:54.531Z,1.50
2023-05-17T14:48:21.439Z,1.50
2023-05-17T14:50:48.244Z,1.50
2023-05-17T14:53:15.033Z,1.60
2023-05-17T14:55:42.407Z,2.15
2023-05-17T14:58:09.280Z,1.50
2023-05-17T15:00:36.189Z,1.50
2023-05-17T15:03:03.161Z,1.70
2023-05-17T15:05:30.371Z,1.55
2023-05-17T15:07:57.700Z,1.42
2023-05-17T15:10:24.573Z,1.20
2023-05-17T15:12:52.341Z,1.50
2023-05-17T15:15:22.343Z,1.50
2023-05-17T15:17:49.204Z,1.45
2023-05-17T15:20:16.146Z,1.90
2023-05-17T15:22:42.973Z,1.83
2023-05-17T15:25:09.914Z,1.60
2023-05-17T15:27:37.276Z,1.73
2023-05-17T15:30:04.697Z,1.75
2023-05-17T15:32:33.523Z,1.80
2023-05-17T15:35:00.260Z,1.77
2023-05-17T15:37:27.218Z,1.63
2023-05-17T15:39:54.015Z,2.30
2023-05-17T15:42:20.727Z,2.53
2023-05-17T15:44:47.496Z,1.92
2023-05-17T15:47:14.426Z,1.80
2023-05-17T15:49:41.414Z,2.17
2023-05-17T15:52:09.194Z,2.00
2023-05-17T15:54:35.971Z,1.95
2023-05-17T15:57:02.757Z,2.00
2023-05-17T15:59:29.580Z,2.17
2023-05-17T16:01:56.356Z,2.30
2023-05-17T16:04:23.187Z,1.92
2023-05-17T16:06:50.283Z,2.92
2023-05-17T16:09:17.232Z,2.15
2023-05-17T16:11:44.006Z,2.05
2023-05-17T16:14:10.985Z,1.90
2023-05-17T16:16:37.762Z,2.20
2023-05-17T16:19:05.756Z,2.03
2023-05-17T16:21:32.766Z,2.35
2023-05-17T16:23:59.546Z,2.25
2023-05-17T16:26:26.541Z,2.03
2023-05-17T16:28:53.682Z,1.90
2023-05-17T16:31:20.532Z,2.15
2023-05-17T16:33:47.442Z,2.00
2023-05-17T16:36:14.347Z,1.75
2023-05-17T16:38:41.175Z,1.90
2023-05-17T16:41:08.121Z,1.48
2023-05-17T16:43:35.527Z,2.00
2023-05-17T16:46:02.361Z,1.95
2023-05-17T16:48:29.241Z,2.00
2023-05-17T16:50:58.417Z,2.25
2023-05-17T16:53:28.124Z,2.20
2023-05-17T16:55:55.261Z,2.22
2023-05-17T16:58:21.965Z,2.22
2023-05-17T17:00:48.760Z,1.80
2023-05-17T17:03:15.658Z,1.98
2023-05-17T17:05:42.386Z,2.30
2023-05-17T17:08:09.122Z,2.13
2023-05-17T17:10:36.222Z,1.55
2023-05-17T17:13:03.745Z,1.73
2023-05-17T17:15:30.530Z,2.05
2023-05-17T17:17:57.355Z,1.70
2023-05-17T17:20:24.188Z,1.90
2023-05-17T17:22:51.160Z,1.63
2023-05-17T17:25:19.000Z,1.90
2023-05-17T17:27:45.890Z,2.08
2023-05-17T17:30:12.848Z,1.70
2023-05-17T17:32:39.639Z,1.75
2023-05-17T17:35:07.024Z,1.73
2023-05-17T17:37:33.838Z,2.38
2023-05-17T17:40:00.755Z,2.00
2023-05-17T17:42:30.786Z,1.45
2023-05-17T17:44:58.773Z,1.90
2023-05-17T17:47:25.700Z,2.00
2023-05-17T17:49:52.684Z,2.45
2023-05-17T17:52:19.395Z,3.17
2023-05-17T17:54:46.280Z,3.17
2023-05-17T17:57:13.459Z,3.22
2023-05-17T17:59:40.215Z,3.10
2023-05-17T18:02:07.009Z,3.30
2023-05-17T18:04:34.037Z,3.13
2023-05-17T18:07:01.990Z,3.45
2023-05-17T18:09:28.783Z,2.92
2023-05-17T18:11:57.031Z,3.05
2023-05-17T18:14:23.782Z,3.33
2023-05-17T18:16:50.616Z,2.95
2023-05-17T18:19:17.561Z,3.28
2023-05-17T18:21:44.706Z,3.00
2023-05-17T18:24:12.378Z,2.90
2023-05-17T18:26:39.158Z,3.30
2023-05-17T18:29:05.881Z,3.20
2023-05-17T18:31:32.765Z,3.13
2023-05-17T18:33:59.568Z,2.95
2023-05-17T18:36:26.395Z,3.22
2023-05-17T18:38:53.382Z,3.13
2023-05-17T18:41:21.140Z,3.30
2023-05-17T18:43:47.829Z,2.80
2023-05-17T18:46:14.584Z,3.30
2023-05-17T18:48:41.510Z,3.03
2023-05-17T18:51:08.586Z,3.25
2023-05-17T18:53:38.064Z,3.28
2023-05-17T18:56:05.172Z,3.10
2023-05-17T18:58:32.349Z,3.25
2023-05-17T19:01:00.464Z,2.90
2023-05-17T19:03:27.280Z,3.40
2023-05-17T19:05:54.105Z,2.83
2023-05-17T19:08:21.060Z,2.75
2023-05-17T19:10:52.876Z,2.67
2023-05-17T19:13:19.904Z,2.67
2023-05-17T19:15:46.895Z,2.65
2023-05-17T19:18:14.081Z,3.00
2023-05-17T19:20:41.004Z,2.90
2023-05-17T19:23:08.549Z,3.10
2023-05-17T19:25:35.972Z,3.30
2023-05-17T19:28:03.391Z,2.95
2023-05-17T19:30:32.735Z,2.92
2023-05-17T19:33:00.448Z,2.97
2023-05-17T19:35:27.942Z,3.17
2023-05-17T19:37:59.652Z,2.95
2023-05-17T19:40:27.796Z,3.33
2023-05-17T19:42:55.130Z,3.35
2023-05-17T19:45:23.347Z,3.50
2023-05-17T19:47:50.826Z,3.63
2023-05-17T19:50:18.284Z,2.92
2023-05-17T19:52:46.307Z,3.30
2023-05-17T19:55:22.846Z,3.30
2023-05-17T19:57:50.173Z,3.25
2023-05-17T20:00:18.258Z,3.75
2023-05-17T20:02:49.400Z,3.47
2023-05-17T20:05:17.563Z,3.45
2023-05-17T20:07:45.258Z,2.83
2023-05-17T20:10:15.514Z,3.00
2023-05-17T20:12:43.797Z,3.00
2023-05-17T20:15:12.025Z,3.53
2023-05-17T20:17:40.439Z,3.40
2023-05-17T20:20:09.358Z,3.08
2023-05-17T20:22:38.006Z,3.42
2023-05-17T20:25:06.224Z,3.42
2023-05-17T20:27:33.505Z,3.30
2023-05-17T20:30:01.225Z,3.60
2023-05-17T20:32:28.887Z,3.00
2023-05-17T20:34:57.906Z,3.63
2023-05-17T20:37:27.252Z,3.05
2023-05-17T20:39:57.155Z,2.90
2023-05-17T20:42:25.453Z,3.08
2023-05-17T20:44:53.920Z,3.58
2023-05-17T20:47:22.851Z,3.33
2023-05-17T20:49:50.553Z,3.42
2023-05-17T20:52:31.350Z,3.63
2023-05-17T20:55:05.442Z,3.90
2023-05-17T20:57:34.674Z,3.63
2023-05-17T21:00:02.289Z,3.65
2023-05-17T21:02:29.121Z,3.90
2023-05-17T21:04:55.974Z,4.22
2023-05-17T21:07:26.372Z,3.67
2023-05-17T21:09:53.198Z,3.92
2023-05-17T21:12:20.980Z,3.72
2023-05-17T21:14:59.831Z,3.85
2023-05-17T21:17:35.243Z,4.30
2023-05-17T21:20:01.997Z,3.67
2023-05-17T21:22:28.815Z,3.75
2023-05-17T21:24:55.863Z,4.20
2023-05-17T21:27:22.626Z,4.25
2023-05-17T21:29:49.389Z,3.42
2023-05-17T21:32:17.144Z,3.97
2023-05-17T21:34:44.922Z,4.00
2023-05-17T21:37:11.826Z,3.55
2023-05-17T21:39:38.866Z,4.03
2023-05-17T21:42:05.963Z,3.67
2023-05-17T21:44:32.772Z,3.22
2023-05-17T21:46:59.926Z,3.50
2023-05-17T21:49:26.719Z,3.60
2023-05-17T21:51:53.439Z,4.13
2023-05-17T21:54:20.638Z,3.83
2023-05-17T21:56:47.363Z,4.30
2023-05-17T21:59:14.145Z,3.88
2023-05-17T22:01:41.118Z,3.38
2023-05-17T22:04:09.236Z,3.75
2023-05-17T22:06:36.130Z,3.90
2023-05-17T22:09:02.999Z,3.60
2023-05-17T22:11:30.662Z,4.50
2023-05-17T22:13:58.057Z,3.88
2023-05-17T22:16:25.838Z,4.22
2023-05-17T22:18:52.827Z,3.78
2023-05-17T22:21:19.846Z,4.60
2023-05-17T22:23:46.862Z,3.85
2023-05-17T22:26:13.692Z,4.05
2023-05-17T22:28:40.787Z,4.55
2023-05-17T22:31:07.697Z,4.30
2023-05-17T22:33:35.622Z,4.32
2023-05-17T22:36:03.592Z,4.05
2023-05-17T22:38:30.566Z,4.07
2023-05-17T22:40:57.406Z,4.70
2023-05-17T22:43:25.951Z,3.72
2023-05-17T22:45:52.893Z,4.80
2023-05-17T22:48:22.381Z,4.00
2023-05-17T22:50:50.517Z,4.50
2023-05-17T22:53:18.514Z,4.68
2023-05-17T22:55:48.710Z,5.10
2023-05-17T22:58:15.846Z,4.72
2023-05-17T23:00:42.875Z,4.85
2023-05-17T23:03:10.855Z,4.50
2023-05-17T23:05:37.717Z,4.70
2023-05-17T23:08:05.620Z,3.95
2023-05-17T23:10:32.406Z,4.63
2023-05-17T23:12:59.365Z,4.65
2023-05-17T23:15:26.924Z,4.18
2023-05-17T23:17:54.232Z,4.43
2023-05-17T23:20:23.928Z,4.50
2023-05-17T23:22:53.135Z,4.55
2023-05-17T23:25:20.776Z,4.75
2023-05-17T23:27:50.907Z,4.60
2023-05-17T23:30:17.980Z,4.72
2023-05-17T23:32:46.720Z,4.72
2023-05-17T23:35:13.515Z,4.95
2023-05-17T23:37:40.281Z,4.30
2023-05-17T23:40:09.369Z,4.95
2023-05-17T23:42:36.318Z,5.10
2023-05-17T23:45:03.986Z,5.53
2023-05-17T23:47:33.385Z,5.20
2023-05-17T23:50:00.608Z,5.07
2023-05-17T23:52:29.911Z,5.10
2023-05-17T23:54:58.876Z,5.47
2023-05-17T23:57:25.668Z,5.28
2023-05-17T23:59:52.456Z,5.15
